sensor_id;sensor_type;location;lat;lon;timestamp;P1;durP1;ratioP1;P2;durP2;ratioP2
54332;SDS011;40230;41.860;21.940;2022-09-03T00:00:40;4.15;;;2.30;;
54332;SDS011;40230;41.860;21.940;2022-09-03T00:08:27;3.42;;;2.47;;
54332;SDS011;40230;41.860;21.940;2022-09-03T00:13:39;2.90;;;2.10;;
54332;SDS011;40230;41.860;21.940;2022-09-03T00:16:08;2.15;;;2.00;;
54332;SDS011;40230;41.860;21.940;2022-09-03T00:18:40;2.47;;;2.05;;
54332;SDS011;40230;41.860;21.940;2022-09-03T00:21:11;2.60;;;2.15;;
54332;SDS011;40230;41.860;21.940;2022-09-03T00:23:39;2.28;;;2.08;;
54332;SDS011;40230;41.860;21.940;2022-09-03T00:28:58;2.42;;;1.90;;
54332;SDS011;40230;41.860;21.940;2022-09-03T00:31:31;2.60;;;1.80;;
54332;SDS011;40230;41.860;21.940;2022-09-03T00:34:03;3.70;;;2.45;;
54332;SDS011;40230;41.860;21.940;2022-09-03T00:39:15;2.70;;;2.20;;
54332;SDS011;40230;41.860;21.940;2022-09-03T00:44:37;3.47;;;2.08;;
54332;SDS011;40230;41.860;21.940;2022-09-03T00:49:49;3.78;;;2.30;;
54332;SDS011;40230;41.860;21.940;2022-09-03T00:52:31;2.55;;;2.17;;
54332;SDS011;40230;41.860;21.940;2022-09-03T01:00:18;3.08;;;2.13;;
54332;SDS011;40230;41.860;21.940;2022-09-03T01:10:45;2.65;;;2.40;;
54332;SDS011;40230;41.860;21.940;2022-09-03T01:16:15;2.42;;;2.10;;
54332;SDS011;40230;41.860;21.940;2022-09-03T01:24:22;3.03;;;2.20;;
54332;SDS011;40230;41.860;21.940;2022-09-03T01:39:32;2.60;;;2.30;;
54332;SDS011;40230;41.860;21.940;2022-09-03T01:42:10;3.60;;;2.90;;
54332;SDS011;40230;41.860;21.940;2022-09-03T01:55:52;3.78;;;3.40;;
54332;SDS011;40230;41.860;21.940;2022-09-03T02:00:48;3.30;;;2.45;;
54332;SDS011;40230;41.860;21.940;2022-09-03T02:03:16;3.28;;;2.65;;
54332;SDS011;40230;41.860;21.940;2022-09-03T02:05:42;4.53;;;3.15;;
54332;SDS011;40230;41.860;21.940;2022-09-03T02:08:11;5.07;;;3.00;;
54332;SDS011;40230;41.860;21.940;2022-09-03T02:10:39;3.78;;;3.00;;
54332;SDS011;40230;41.860;21.940;2022-09-03T02:13:07;3.65;;;3.17;;
54332;SDS011;40230;41.860;21.940;2022-09-03T02:15:39;3.85;;;3.33;;
54332;SDS011;40230;41.860;21.940;2022-09-03T02:18:07;4.20;;;3.35;;
54332;SDS011;40230;41.860;21.940;2022-09-03T02:20:35;3.53;;;2.92;;
54332;SDS011;40230;41.860;21.940;2022-09-03T02:23:02;5.00;;;3.63;;
54332;SDS011;40230;41.860;21.940;2022-09-03T02:25:31;3.70;;;2.85;;
54332;SDS011;40230;41.860;21.940;2022-09-03T02:27:59;3.80;;;3.40;;
54332;SDS011;40230;41.860;21.940;2022-09-03T02:30:25;3.63;;;3.20;;
54332;SDS011;40230;41.860;21.940;2022-09-03T02:32:52;4.50;;;3.47;;
54332;SDS011;40230;41.860;21.940;2022-09-03T02:35:18;3.90;;;3.17;;
54332;SDS011;40230;41.860;21.940;2022-09-03T02:37:44;4.22;;;3.55;;
54332;SDS011;40230;41.860;21.940;2022-09-03T02:40:10;3.70;;;3.40;;
54332;SDS011;40230;41.860;21.940;2022-09-03T02:42:36;3.75;;;3.35;;
54332;SDS011;40230;41.860;21.940;2022-09-03T02:45:06;5.05;;;4.15;;
54332;SDS011;40230;41.860;21.940;2022-09-03T02:47:36;4.13;;;3.72;;
54332;SDS011;40230;41.860;21.940;2022-09-03T02:50:04;4.13;;;3.72;;
54332;SDS011;40230;41.860;21.940;2022-09-03T02:52:30;5.05;;;3.97;;
54332;SDS011;40230;41.860;21.940;2022-09-03T02:54:56;4.47;;;3.63;;
54332;SDS011;40230;41.860;21.940;2022-09-03T02:57:22;3.90;;;3.45;;
54332;SDS011;40230;41.860;21.940;2022-09-03T02:59:49;4.30;;;3.65;;
54332;SDS011;40230;41.860;21.940;2022-09-03T03:02:15;6.60;;;3.80;;
54332;SDS011;40230;41.860;21.940;2022-09-03T03:04:41;5.15;;;4.65;;
54332;SDS011;40230;41.860;21.940;2022-09-03T03:07:07;6.63;;;3.80;;
54332;SDS011;40230;41.860;21.940;2022-09-03T03:09:33;4.57;;;3.78;;
54332;SDS011;40230;41.860;21.940;2022-09-03T03:11:59;4.38;;;3.92;;
54332;SDS011;40230;41.860;21.940;2022-09-03T03:14:25;5.13;;;4.45;;
54332;SDS011;40230;41.860;21.940;2022-09-03T03:16:51;5.35;;;4.80;;
54332;SDS011;40230;41.860;21.940;2022-09-03T03:19:17;4.50;;;4.00;;
54332;SDS011;40230;41.860;21.940;2022-09-03T03:21:43;5.63;;;4.97;;
54332;SDS011;40230;41.860;21.940;2022-09-03T03:24:10;5.25;;;4.75;;
54332;SDS011;40230;41.860;21.940;2022-09-03T03:26:36;5.50;;;4.90;;
54332;SDS011;40230;41.860;21.940;2022-09-03T03:29:02;5.72;;;5.13;;
54332;SDS011;40230;41.860;21.940;2022-09-03T03:31:29;5.30;;;4.80;;
54332;SDS011;40230;41.860;21.940;2022-09-03T03:33:56;5.13;;;4.60;;
54332;SDS011;40230;41.860;21.940;2022-09-03T03:36:23;6.68;;;5.45;;
54332;SDS011;40230;41.860;21.940;2022-09-03T03:38:52;4.90;;;4.28;;
54332;SDS011;40230;41.860;21.940;2022-09-03T03:41:20;5.53;;;4.28;;
54332;SDS011;40230;41.860;21.940;2022-09-03T03:43:46;5.40;;;4.88;;
54332;SDS011;40230;41.860;21.940;2022-09-03T03:46:12;5.57;;;5.07;;
54332;SDS011;40230;41.860;21.940;2022-09-03T03:48:39;8.07;;;5.25;;
54332;SDS011;40230;41.860;21.940;2022-09-03T03:51:08;5.20;;;4.75;;
54332;SDS011;40230;41.860;21.940;2022-09-03T03:53:36;6.85;;;5.00;;
54332;SDS011;40230;41.860;21.940;2022-09-03T03:56:04;5.43;;;4.93;;
54332;SDS011;40230;41.860;21.940;2022-09-03T03:58:31;5.85;;;5.05;;
54332;SDS011;40230;41.860;21.940;2022-09-03T04:01:08;9.10;;;5.60;;
54332;SDS011;40230;41.860;21.940;2022-09-03T04:03:34;4.60;;;4.20;;
54332;SDS011;40230;41.860;21.940;2022-09-03T04:06:01;8.00;;;5.60;;
54332;SDS011;40230;41.860;21.940;2022-09-03T04:08:29;5.55;;;4.75;;
54332;SDS011;40230;41.860;21.940;2022-09-03T04:10:59;5.30;;;4.70;;
54332;SDS011;40230;41.860;21.940;2022-09-03T04:13:31;6.07;;;5.47;;
54332;SDS011;40230;41.860;21.940;2022-09-03T04:16:04;5.57;;;4.78;;
54332;SDS011;40230;41.860;21.940;2022-09-03T04:18:31;5.53;;;5.00;;
54332;SDS011;40230;41.860;21.940;2022-09-03T04:21:01;5.30;;;4.72;;
54332;SDS011;40230;41.860;21.940;2022-09-03T04:23:28;8.05;;;5.00;;
54332;SDS011;40230;41.860;21.940;2022-09-03T04:25:55;6.45;;;5.05;;
54332;SDS011;40230;41.860;21.940;2022-09-03T04:28:21;9.20;;;7.03;;
54332;SDS011;40230;41.860;21.940;2022-09-03T04:30:47;9.57;;;7.70;;
54332;SDS011;40230;41.860;21.940;2022-09-03T04:33:13;7.72;;;5.63;;
54332;SDS011;40230;41.860;21.940;2022-09-03T04:35:39;7.72;;;6.18;;
54332;SDS011;40230;41.860;21.940;2022-09-03T04:38:07;7.85;;;6.88;;
54332;SDS011;40230;41.860;21.940;2022-09-03T04:40:33;7.53;;;6.13;;
54332;SDS011;40230;41.860;21.940;2022-09-03T04:42:59;5.53;;;5.03;;
54332;SDS011;40230;41.860;21.940;2022-09-03T04:45:25;5.88;;;5.30;;
54332;SDS011;40230;41.860;21.940;2022-09-03T04:47:56;5.55;;;5.03;;
54332;SDS011;40230;41.860;21.940;2022-09-03T04:50:22;5.70;;;5.13;;
54332;SDS011;40230;41.860;21.940;2022-09-03T04:52:48;5.47;;;4.78;;
54332;SDS011;40230;41.860;21.940;2022-09-03T04:55:14;4.70;;;4.20;;
54332;SDS011;40230;41.860;21.940;2022-09-03T04:57:41;5.38;;;4.47;;
54332;SDS011;40230;41.860;21.940;2022-09-03T05:00:08;5.60;;;5.03;;
54332;SDS011;40230;41.860;21.940;2022-09-03T05:02:36;5.90;;;5.28;;
54332;SDS011;40230;41.860;21.940;2022-09-03T05:05:02;5.75;;;5.20;;
54332;SDS011;40230;41.860;21.940;2022-09-03T05:07:29;5.03;;;4.40;;
54332;SDS011;40230;41.860;21.940;2022-09-03T05:10:04;5.10;;;4.60;;
54332;SDS011;40230;41.860;21.940;2022-09-03T05:12:30;5.25;;;4.75;;
54332;SDS011;40230;41.860;21.940;2022-09-03T05:14:57;5.30;;;4.55;;
54332;SDS011;40230;41.860;21.940;2022-09-03T05:17:29;5.80;;;4.80;;
54332;SDS011;40230;41.860;21.940;2022-09-03T05:19:55;5.15;;;4.18;;
54332;SDS011;40230;41.860;21.940;2022-09-03T05:22:22;6.30;;;5.05;;
54332;SDS011;40230;41.860;21.940;2022-09-03T05:24:48;5.05;;;4.38;;
54332;SDS011;40230;41.860;21.940;2022-09-03T05:27:14;5.75;;;4.88;;
54332;SDS011;40230;41.860;21.940;2022-09-03T05:32:25;5.30;;;4.78;;
54332;SDS011;40230;41.860;21.940;2022-09-03T05:34:55;5.60;;;5.00;;
54332;SDS011;40230;41.860;21.940;2022-09-03T05:37:21;5.05;;;4.50;;
54332;SDS011;40230;41.860;21.940;2022-09-03T05:39:47;6.18;;;4.80;;
54332;SDS011;40230;41.860;21.940;2022-09-03T05:42:13;5.43;;;4.93;;
54332;SDS011;40230;41.860;21.940;2022-09-03T05:44:43;6.13;;;5.45;;
54332;SDS011;40230;41.860;21.940;2022-09-03T05:47:09;4.85;;;4.35;;
54332;SDS011;40230;41.860;21.940;2022-09-03T05:49:35;6.10;;;5.43;;
54332;SDS011;40230;41.860;21.940;2022-09-03T05:52:01;6.05;;;5.15;;
54332;SDS011;40230;41.860;21.940;2022-09-03T05:54:27;8.88;;;7.90;;
54332;SDS011;40230;41.860;21.940;2022-09-03T05:56:53;9.77;;;8.00;;
54332;SDS011;40230;41.860;21.940;2022-09-03T05:59:20;6.68;;;5.70;;
54332;SDS011;40230;41.860;21.940;2022-09-03T06:01:46;6.13;;;4.95;;
54332;SDS011;40230;41.860;21.940;2022-09-03T06:04:14;5.95;;;5.38;;
54332;SDS011;40230;41.860;21.940;2022-09-03T06:06:44;5.45;;;4.95;;
54332;SDS011;40230;41.860;21.940;2022-09-03T06:09:11;6.10;;;5.07;;
54332;SDS011;40230;41.860;21.940;2022-09-03T06:11:38;5.78;;;5.18;;
54332;SDS011;40230;41.860;21.940;2022-09-03T06:14:08;5.55;;;4.63;;
54332;SDS011;40230;41.860;21.940;2022-09-03T06:16:36;4.50;;;4.07;;
54332;SDS011;40230;41.860;21.940;2022-09-03T06:19:03;5.60;;;5.10;;
54332;SDS011;40230;41.860;21.940;2022-09-03T06:21:34;5.93;;;5.32;;
54332;SDS011;40230;41.860;21.940;2022-09-03T06:24:00;5.35;;;4.82;;
54332;SDS011;40230;41.860;21.940;2022-09-03T06:26:27;6.55;;;5.10;;
54332;SDS011;40230;41.860;21.940;2022-09-03T06:28:54;6.05;;;5.20;;
54332;SDS011;40230;41.860;21.940;2022-09-03T06:31:21;6.15;;;5.00;;
54332;SDS011;40230;41.860;21.940;2022-09-03T06:33:47;5.60;;;5.03;;
54332;SDS011;40230;41.860;21.940;2022-09-03T06:36:15;8.00;;;4.68;;
54332;SDS011;40230;41.860;21.940;2022-09-03T06:38:42;4.80;;;4.30;;
54332;SDS011;40230;41.860;21.940;2022-09-03T06:41:09;5.40;;;4.57;;
54332;SDS011;40230;41.860;21.940;2022-09-03T06:43:36;4.88;;;4.43;;
54332;SDS011;40230;41.860;21.940;2022-09-03T06:46:04;5.63;;;4.78;;
54332;SDS011;40230;41.860;21.940;2022-09-03T06:48:31;4.90;;;4.40;;
54332;SDS011;40230;41.860;21.940;2022-09-03T06:53:26;5.20;;;4.70;;
54332;SDS011;40230;41.860;21.940;2022-09-03T06:55:55;5.45;;;4.68;;
54332;SDS011;40230;41.860;21.940;2022-09-03T06:58:23;4.47;;;4.00;;
54332;SDS011;40230;41.860;21.940;2022-09-03T07:00:49;5.53;;;4.55;;
54332;SDS011;40230;41.860;21.940;2022-09-03T07:03:19;4.85;;;4.30;;
54332;SDS011;40230;41.860;21.940;2022-09-03T07:05:46;4.82;;;3.40;;
54332;SDS011;40230;41.860;21.940;2022-09-03T07:08:12;4.03;;;3.63;;
54332;SDS011;40230;41.860;21.940;2022-09-03T07:10:38;3.88;;;3.47;;
54332;SDS011;40230;41.860;21.940;2022-09-03T07:13:04;5.57;;;3.97;;
54332;SDS011;40230;41.860;21.940;2022-09-03T07:15:31;6.82;;;4.28;;
54332;SDS011;40230;41.860;21.940;2022-09-03T07:17:58;6.47;;;4.00;;
54332;SDS011;40230;41.860;21.940;2022-09-03T07:20:24;5.35;;;4.80;;
54332;SDS011;40230;41.860;21.940;2022-09-03T07:22:53;4.15;;;3.75;;
54332;SDS011;40230;41.860;21.940;2022-09-03T07:25:20;4.50;;;4.10;;
54332;SDS011;40230;41.860;21.940;2022-09-03T07:27:46;5.30;;;4.30;;
54332;SDS011;40230;41.860;21.940;2022-09-03T07:30:15;4.80;;;4.30;;
54332;SDS011;40230;41.860;21.940;2022-09-03T07:32:41;7.00;;;6.30;;
54332;SDS011;40230;41.860;21.940;2022-09-03T07:35:07;4.75;;;4.00;;
54332;SDS011;40230;41.860;21.940;2022-09-03T07:37:33;5.10;;;4.00;;
54332;SDS011;40230;41.860;21.940;2022-09-03T07:39:59;4.13;;;3.03;;
54332;SDS011;40230;41.860;21.940;2022-09-03T07:42:25;4.10;;;3.67;;
54332;SDS011;40230;41.860;21.940;2022-09-03T07:44:55;4.38;;;3.15;;
54332;SDS011;40230;41.860;21.940;2022-09-03T07:47:22;4.18;;;3.67;;
54332;SDS011;40230;41.860;21.940;2022-09-03T07:49:50;3.90;;;3.47;;
54332;SDS011;40230;41.860;21.940;2022-09-03T07:52:16;4.57;;;4.18;;
54332;SDS011;40230;41.860;21.940;2022-09-03T07:54:42;4.13;;;3.70;;
54332;SDS011;40230;41.860;21.940;2022-09-03T07:57:08;4.13;;;3.72;;
54332;SDS011;40230;41.860;21.940;2022-09-03T07:59:34;5.10;;;3.80;;
54332;SDS011;40230;41.860;21.940;2022-09-03T08:02:01;5.10;;;3.58;;
54332;SDS011;40230;41.860;21.940;2022-09-03T08:04:30;4.60;;;4.03;;
54332;SDS011;40230;41.860;21.940;2022-09-03T08:06:57;3.95;;;3.55;;
54332;SDS011;40230;41.860;21.940;2022-09-03T08:09:24;3.53;;;3.15;;
54332;SDS011;40230;41.860;21.940;2022-09-03T08:11:50;3.60;;;2.80;;
54332;SDS011;40230;41.860;21.940;2022-09-03T08:14:16;3.85;;;3.45;;
54332;SDS011;40230;41.860;21.940;2022-09-03T08:16:44;4.75;;;3.17;;
54332;SDS011;40230;41.860;21.940;2022-09-03T08:19:15;3.67;;;3.28;;
54332;SDS011;40230;41.860;21.940;2022-09-03T08:21:42;4.68;;;3.65;;
54332;SDS011;40230;41.860;21.940;2022-09-03T08:24:10;4.47;;;3.35;;
54332;SDS011;40230;41.860;21.940;2022-09-03T08:26:37;3.38;;;2.13;;
54332;SDS011;40230;41.860;21.940;2022-09-03T08:29:04;3.42;;;2.47;;
54332;SDS011;40230;41.860;21.940;2022-09-03T08:31:31;3.78;;;2.70;;
54332;SDS011;40230;41.860;21.940;2022-09-03T08:33:58;3.63;;;3.00;;
54332;SDS011;40230;41.860;21.940;2022-09-03T08:36:31;3.25;;;2.83;;
54332;SDS011;40230;41.860;21.940;2022-09-03T08:38:58;3.65;;;2.75;;
54332;SDS011;40230;41.860;21.940;2022-09-03T08:46:53;2.85;;;2.47;;
54332;SDS011;40230;41.860;21.940;2022-09-03T08:49:25;3.42;;;2.70;;
54332;SDS011;40230;41.860;21.940;2022-09-03T08:51:53;3.15;;;2.85;;
54332;SDS011;40230;41.860;21.940;2022-09-03T08:54:22;2.92;;;2.70;;
54332;SDS011;40230;41.860;21.940;2022-09-03T08:56:50;4.95;;;3.50;;
54332;SDS011;40230;41.860;21.940;2022-09-03T08:59:16;3.72;;;3.13;;
54332;SDS011;40230;41.860;21.940;2022-09-03T09:01:47;3.15;;;2.58;;
54332;SDS011;40230;41.860;21.940;2022-09-03T09:25:01;4.00;;;3.15;;
54332;SDS011;40230;41.860;21.940;2022-09-03T09:27:29;15.32;;;13.73;;
54332;SDS011;40230;41.860;21.940;2022-09-03T09:29:57;3.92;;;2.70;;
54332;SDS011;40230;41.860;21.940;2022-09-03T09:32:25;3.15;;;2.50;;
54332;SDS011;40230;41.860;21.940;2022-09-03T09:34:52;3.10;;;2.70;;
54332;SDS011;40230;41.860;21.940;2022-09-03T09:37:19;3.80;;;2.80;;
54332;SDS011;40230;41.860;21.940;2022-09-03T09:39:55;3.88;;;3.22;;
54332;SDS011;40230;41.860;21.940;2022-09-03T09:42:22;3.60;;;2.70;;
54332;SDS011;40230;41.860;21.940;2022-09-03T09:44:48;3.55;;;3.00;;
54332;SDS011;40230;41.860;21.940;2022-09-03T09:50:00;6.63;;;5.53;;
54332;SDS011;40230;41.860;21.940;2022-09-03T09:52:27;3.08;;;2.70;;
54332;SDS011;40230;41.860;21.940;2022-09-03T09:55:05;4.63;;;3.60;;
54332;SDS011;40230;41.860;21.940;2022-09-03T09:57:32;6.22;;;4.70;;
54332;SDS011;40230;41.860;21.940;2022-09-03T10:00:10;3.47;;;2.58;;
54332;SDS011;40230;41.860;21.940;2022-09-03T10:02:37;3.88;;;2.78;;
54332;SDS011;40230;41.860;21.940;2022-09-03T10:05:13;5.55;;;2.60;;
54332;SDS011;40230;41.860;21.940;2022-09-03T10:07:40;3.00;;;2.70;;
54332;SDS011;40230;41.860;21.940;2022-09-03T10:10:09;2.95;;;2.35;;
54332;SDS011;40230;41.860;21.940;2022-09-03T10:12:43;2.88;;;2.60;;
54332;SDS011;40230;41.860;21.940;2022-09-03T10:28:28;4.47;;;2.95;;
54332;SDS011;40230;41.860;21.940;2022-09-03T10:30:59;4.80;;;2.90;;
54332;SDS011;40230;41.860;21.940;2022-09-03T10:33:29;2.60;;;2.40;;
54332;SDS011;40230;41.860;21.940;2022-09-03T10:36:14;4.80;;;3.53;;
54332;SDS011;40230;41.860;21.940;2022-09-03T10:38:43;3.28;;;2.97;;
54332;SDS011;40230;41.860;21.940;2022-09-03T10:46:26;3.15;;;2.83;;
54332;SDS011;40230;41.860;21.940;2022-09-03T10:51:26;3.85;;;2.80;;
54332;SDS011;40230;41.860;21.940;2022-09-03T10:58:57;2.92;;;2.38;;
54332;SDS011;40230;41.860;21.940;2022-09-03T11:07:00;3.10;;;2.80;;
54332;SDS011;40230;41.860;21.940;2022-09-03T11:12:14;3.55;;;3.08;;
54332;SDS011;40230;41.860;21.940;2022-09-03T11:14:44;2.85;;;2.50;;
54332;SDS011;40230;41.860;21.940;2022-09-03T11:17:15;2.85;;;2.55;;
54332;SDS011;40230;41.860;21.940;2022-09-03T11:19:47;3.53;;;3.15;;
54332;SDS011;40230;41.860;21.940;2022-09-03T11:22:14;3.88;;;3.42;;
54332;SDS011;40230;41.860;21.940;2022-09-03T11:24:42;3.30;;;3.00;;
54332;SDS011;40230;41.860;21.940;2022-09-03T11:32:08;4.53;;;3.50;;
54332;SDS011;40230;41.860;21.940;2022-09-03T11:34:46;3.85;;;2.47;;
54332;SDS011;40230;41.860;21.940;2022-09-03T11:37:20;4.05;;;2.78;;
54332;SDS011;40230;41.860;21.940;2022-09-03T11:42:39;3.50;;;3.20;;
54332;SDS011;40230;41.860;21.940;2022-09-03T11:47:51;4.57;;;2.90;;
54332;SDS011;40230;41.860;21.940;2022-09-03T11:52:45;3.63;;;3.33;;
54332;SDS011;40230;41.860;21.940;2022-09-03T11:55:12;4.40;;;4.00;;
54332;SDS011;40230;41.860;21.940;2022-09-03T11:57:48;2.80;;;2.33;;
54332;SDS011;40230;41.860;21.940;2022-09-03T12:00:15;3.00;;;2.70;;
54332;SDS011;40230;41.860;21.940;2022-09-03T12:02:49;2.88;;;2.35;;
54332;SDS011;40230;41.860;21.940;2022-09-03T12:13:18;3.05;;;2.75;;
54332;SDS011;40230;41.860;21.940;2022-09-03T12:15:59;2.50;;;2.20;;
54332;SDS011;40230;41.860;21.940;2022-09-03T12:18:32;2.35;;;2.10;;
54332;SDS011;40230;41.860;21.940;2022-09-03T12:21:03;3.65;;;3.03;;
54332;SDS011;40230;41.860;21.940;2022-09-03T12:23:31;2.55;;;2.30;;
54332;SDS011;40230;41.860;21.940;2022-09-03T12:28:43;2.42;;;2.22;;
54332;SDS011;40230;41.860;21.940;2022-09-03T12:31:14;3.42;;;2.92;;
54332;SDS011;40230;41.860;21.940;2022-09-03T12:34:10;3.10;;;2.80;;
54332;SDS011;40230;41.860;21.940;2022-09-03T12:36:41;3.75;;;2.55;;
54332;SDS011;40230;41.860;21.940;2022-09-03T12:39:08;3.83;;;3.42;;
54332;SDS011;40230;41.860;21.940;2022-09-03T12:41:34;2.78;;;2.20;;
54332;SDS011;40230;41.860;21.940;2022-09-03T12:44:01;2.55;;;2.35;;
54332;SDS011;40230;41.860;21.940;2022-09-03T12:46:32;2.78;;;1.60;;
54332;SDS011;40230;41.860;21.940;2022-09-03T12:48:59;2.80;;;2.20;;
54332;SDS011;40230;41.860;21.940;2022-09-03T12:51:39;2.28;;;2.08;;
54332;SDS011;40230;41.860;21.940;2022-09-03T12:54:07;2.67;;;1.98;;
54332;SDS011;40230;41.860;21.940;2022-09-03T12:56:39;3.42;;;2.00;;
54332;SDS011;40230;41.860;21.940;2022-09-03T12:59:08;2.35;;;1.80;;
54332;SDS011;40230;41.860;21.940;2022-09-03T13:01:59;2.75;;;2.50;;
54332;SDS011;40230;41.860;21.940;2022-09-03T13:04:24;2.20;;;2.00;;
54332;SDS011;40230;41.860;21.940;2022-09-03T13:06:55;3.65;;;2.13;;
54332;SDS011;40230;41.860;21.940;2022-09-03T13:09:25;2.42;;;2.10;;
54332;SDS011;40230;41.860;21.940;2022-09-03T13:11:54;3.92;;;2.30;;
54332;SDS011;40230;41.860;21.940;2022-09-03T13:14:23;5.05;;;2.72;;
54332;SDS011;40230;41.860;21.940;2022-09-03T13:17:00;2.20;;;2.00;;
54332;SDS011;40230;41.860;21.940;2022-09-03T13:30:14;2.75;;;2.30;;
54332;SDS011;40230;41.860;21.940;2022-09-03T13:32:49;2.83;;;2.63;;
54332;SDS011;40230;41.860;21.940;2022-09-03T13:40:35;2.38;;;2.17;;
54332;SDS011;40230;41.860;21.940;2022-09-03T13:43:04;3.00;;;2.70;;
54332;SDS011;40230;41.860;21.940;2022-09-03T13:46:01;3.58;;;2.85;;
54332;SDS011;40230;41.860;21.940;2022-09-03T13:48:38;3.03;;;2.60;;
54332;SDS011;40230;41.860;21.940;2022-09-03T13:51:30;2.85;;;2.60;;
54332;SDS011;40230;41.860;21.940;2022-09-03T13:54:12;3.38;;;2.60;;
54332;SDS011;40230;41.860;21.940;2022-09-03T13:59:16;3.00;;;2.45;;
54332;SDS011;40230;41.860;21.940;2022-09-03T14:07:14;3.85;;;2.90;;
54332;SDS011;40230;41.860;21.940;2022-09-03T14:10:00;3.15;;;2.85;;
54332;SDS011;40230;41.860;21.940;2022-09-03T14:15:19;3.85;;;3.28;;
54332;SDS011;40230;41.860;21.940;2022-09-03T14:27:53;3.00;;;2.70;;
54332;SDS011;40230;41.860;21.940;2022-09-03T14:33:09;4.68;;;3.35;;
54332;SDS011;40230;41.860;21.940;2022-09-03T14:46:52;3.20;;;2.90;;
54332;SDS011;40230;41.860;21.940;2022-09-03T15:05:15;2.63;;;2.42;;
54332;SDS011;40230;41.860;21.940;2022-09-03T15:08:00;4.80;;;2.78;;
54332;SDS011;40230;41.860;21.940;2022-09-03T15:18:08;3.38;;;3.05;;
54332;SDS011;40230;41.860;21.940;2022-09-03T15:23:38;2.72;;;2.47;;
54332;SDS011;40230;41.860;21.940;2022-09-03T15:29:15;4.28;;;3.25;;
54332;SDS011;40230;41.860;21.940;2022-09-03T15:36:52;20.60;;;18.40;;
54332;SDS011;40230;41.860;21.940;2022-09-03T15:39:21;23.90;;;21.35;;
54332;SDS011;40230;41.860;21.940;2022-09-03T15:44:20;7.93;;;7.13;;
54332;SDS011;40230;41.860;21.940;2022-09-03T15:46:57;7.88;;;7.15;;
54332;SDS011;40230;41.860;21.940;2022-09-03T15:49:26;5.43;;;4.90;;
54332;SDS011;40230;41.860;21.940;2022-09-03T15:52:07;4.90;;;4.40;;
54332;SDS011;40230;41.860;21.940;2022-09-03T15:57:10;5.28;;;3.28;;
54332;SDS011;40230;41.860;21.940;2022-09-03T15:59:41;4.82;;;4.07;;
54332;SDS011;40230;41.860;21.940;2022-09-03T16:10:07;4.60;;;4.20;;
54332;SDS011;40230;41.860;21.940;2022-09-03T16:12:38;4.93;;;4.30;;
54332;SDS011;40230;41.860;21.940;2022-09-03T16:17:32;4.85;;;4.35;;
54332;SDS011;40230;41.860;21.940;2022-09-03T16:20:18;5.22;;;4.72;;
54332;SDS011;40230;41.860;21.940;2022-09-03T16:25:16;5.22;;;4.72;;
54332;SDS011;40230;41.860;21.940;2022-09-03T16:28:04;6.40;;;5.57;;
54332;SDS011;40230;41.860;21.940;2022-09-03T16:30:51;5.50;;;4.15;;
54332;SDS011;40230;41.860;21.940;2022-09-03T16:41:07;6.15;;;5.43;;
54332;SDS011;40230;41.860;21.940;2022-09-03T16:51:38;9.48;;;5.22;;
54332;SDS011;40230;41.860;21.940;2022-09-03T16:54:20;6.40;;;5.13;;
54332;SDS011;40230;41.860;21.940;2022-09-03T16:56:58;3.85;;;3.55;;
54332;SDS011;40230;41.860;21.940;2022-09-03T17:31:06;7.72;;;5.35;;
54332;SDS011;40230;41.860;21.940;2022-09-03T17:36:24;6.03;;;5.43;;
54332;SDS011;40230;41.860;21.940;2022-09-03T17:41:50;6.03;;;5.32;;
54332;SDS011;40230;41.860;21.940;2022-09-03T17:47:15;6.75;;;5.05;;
54332;SDS011;40230;41.860;21.940;2022-09-03T17:49:54;9.15;;;5.93;;
54332;SDS011;40230;41.860;21.940;2022-09-03T17:54:58;8.10;;;5.63;;
54332;SDS011;40230;41.860;21.940;2022-09-03T17:57:29;6.22;;;5.60;;
54332;SDS011;40230;41.860;21.940;2022-09-03T17:59:58;6.75;;;5.82;;
54332;SDS011;40230;41.860;21.940;2022-09-03T18:07:23;8.30;;;7.20;;
54332;SDS011;40230;41.860;21.940;2022-09-03T18:10:03;7.20;;;6.18;;
54332;SDS011;40230;41.860;21.940;2022-09-03T18:15:20;6.70;;;5.22;;
54332;SDS011;40230;41.860;21.940;2022-09-03T18:17:50;5.82;;;5.32;;
54332;SDS011;40230;41.860;21.940;2022-09-03T18:20:17;5.97;;;4.80;;
54332;SDS011;40230;41.860;21.940;2022-09-03T18:23:08;7.72;;;6.82;;
54332;SDS011;40230;41.860;21.940;2022-09-03T18:25:56;7.35;;;6.65;;
54332;SDS011;40230;41.860;21.940;2022-09-03T18:31:33;7.35;;;6.18;;
54332;SDS011;40230;41.860;21.940;2022-09-03T18:37:02;6.63;;;5.40;;
54332;SDS011;40230;41.860;21.940;2022-09-03T18:39:47;7.68;;;6.00;;
54332;SDS011;40230;41.860;21.940;2022-09-03T18:48:29;8.60;;;6.07;;
54332;SDS011;40230;41.860;21.940;2022-09-03T18:54:06;9.38;;;8.15;;
54332;SDS011;40230;41.860;21.940;2022-09-03T18:56:55;8.75;;;7.93;;
54332;SDS011;40230;41.860;21.940;2022-09-03T19:02:35;8.35;;;7.47;;
54332;SDS011;40230;41.860;21.940;2022-09-03T19:05:27;10.88;;;7.45;;
54332;SDS011;40230;41.860;21.940;2022-09-03T19:08:22;9.98;;;7.45;;
54332;SDS011;40230;41.860;21.940;2022-09-03T19:14:14;23.20;;;20.70;;
54332;SDS011;40230;41.860;21.940;2022-09-03T19:17:04;8.30;;;6.85;;
54332;SDS011;40230;41.860;21.940;2022-09-03T19:22:53;11.60;;;8.20;;
54332;SDS011;40230;41.860;21.940;2022-09-03T19:25:38;15.48;;;12.57;;
54332;SDS011;40230;41.860;21.940;2022-09-03T19:28:28;12.45;;;11.30;;
54332;SDS011;40230;41.860;21.940;2022-09-03T19:34:08;12.45;;;11.15;;
54332;SDS011;40230;41.860;21.940;2022-09-03T19:45:11;9.55;;;7.72;;
54332;SDS011;40230;41.860;21.940;2022-09-03T19:48:02;7.85;;;6.82;;
54332;SDS011;40230;41.860;21.940;2022-09-03T19:50:55;8.48;;;7.30;;
54332;SDS011;40230;41.860;21.940;2022-09-03T19:53:43;8.43;;;6.93;;
54332;SDS011;40230;41.860;21.940;2022-09-03T19:56:28;7.60;;;6.88;;
54332;SDS011;40230;41.860;21.940;2022-09-03T19:59:20;7.60;;;6.47;;
54332;SDS011;40230;41.860;21.940;2022-09-03T20:02:06;9.93;;;7.47;;
54332;SDS011;40230;41.860;21.940;2022-09-03T20:10:20;10.25;;;8.40;;
54332;SDS011;40230;41.860;21.940;2022-09-03T20:33:34;10.43;;;9.32;;
54332;SDS011;40230;41.860;21.940;2022-09-03T20:51:31;10.27;;;7.93;;
54332;SDS011;40230;41.860;21.940;2022-09-03T20:54:06;8.38;;;7.18;;
54332;SDS011;40230;41.860;21.940;2022-09-03T20:56:38;10.10;;;8.23;;
54332;SDS011;40230;41.860;21.940;2022-09-03T21:09:51;10.70;;;8.25;;
54332;SDS011;40230;41.860;21.940;2022-09-03T21:15:12;9.35;;;8.25;;
54332;SDS011;40230;41.860;21.940;2022-09-03T21:20:20;9.38;;;8.40;;
54332;SDS011;40230;41.860;21.940;2022-09-03T21:25:19;9.75;;;8.77;;
54332;SDS011;40230;41.860;21.940;2022-09-03T21:27:48;9.65;;;8.70;;
54332;SDS011;40230;41.860;21.940;2022-09-03T21:30:17;9.75;;;8.77;;
54332;SDS011;40230;41.860;21.940;2022-09-03T21:32:58;10.02;;;8.52;;
54332;SDS011;40230;41.860;21.940;2022-09-03T21:35:38;9.30;;;8.38;;
54332;SDS011;40230;41.860;21.940;2022-09-03T21:38:07;13.55;;;9.40;;
54332;SDS011;40230;41.860;21.940;2022-09-03T21:40:40;10.85;;;9.43;;
54332;SDS011;40230;41.860;21.940;2022-09-03T21:43:16;9.98;;;8.95;;
54332;SDS011;40230;41.860;21.940;2022-09-03T21:48:25;10.13;;;9.13;;
54332;SDS011;40230;41.860;21.940;2022-09-03T21:50:54;9.80;;;8.80;;
54332;SDS011;40230;41.860;21.940;2022-09-03T22:01:17;10.30;;;8.40;;
54332;SDS011;40230;41.860;21.940;2022-09-03T22:03:44;9.88;;;8.88;;
54332;SDS011;40230;41.860;21.940;2022-09-03T22:06:18;9.10;;;7.50;;
54332;SDS011;40230;41.860;21.940;2022-09-03T22:08:49;9.73;;;8.10;;